createdAt,value
2019-01-16T00:00:03.723Z,990.29
2019-01-16T00:01:03.897Z,990.32
2019-01-16T00:02:04.068Z,990.28
2019-01-16T00:03:04.240Z,990.30
2019-01-16T00:04:04.412Z,990.28
2019-01-16T00:05:04.593Z,990.27
2019-01-16T00:06:04.756Z,990.25
2019-01-16T00:07:04.935Z,990.27
2019-01-16T00:08:05.096Z,990.25
2019-01-16T00:09:05.264Z,990.28
2019-01-16T00:10:05.450Z,990.29
2019-01-16T00:11:05.634Z,990.25
2019-01-16T00:12:05.799Z,990.22
2019-01-16T00:13:05.967Z,990.23
2019-01-16T00:14:06.140Z,990.25
2019-01-16T00:15:06.313Z,990.23
2019-01-16T00:16:06.485Z,990.16
2019-01-16T00:17:06.662Z,990.23
2019-01-16T00:18:06.832Z,990.11
2019-01-16T00:19:07.000Z,990.12
2019-01-16T00:20:07.169Z,990.16
2019-01-16T00:21:07.342Z,990.12
2019-01-16T00:22:07.518Z,990.16
2019-01-16T00:23:07.696Z,990.15
2019-01-16T00:24:07.862Z,990.17
2019-01-16T00:25:08.039Z,990.19
2019-01-16T00:26:08.214Z,990.19
2019-01-16T00:27:08.379Z,990.14
2019-01-16T00:28:08.550Z,990.18
2019-01-16T00:29:08.732Z,990.19
2019-01-16T00:30:08.895Z,990.21
2019-01-16T00:31:09.079Z,990.23
2019-01-16T00:32:09.236Z,990.16
2019-01-16T00:33:09.410Z,990.18
2019-01-16T00:34:09.589Z,990.25
2019-01-16T00:35:09.752Z,990.21
2019-01-16T00:36:09.928Z,990.19
2019-01-16T00:37:10.093Z,990.18
2019-01-16T00:38:10.265Z,990.18
2019-01-16T00:39:10.438Z,990.15
2019-01-16T00:40:10.607Z,990.18
2019-01-16T00:41:10.781Z,990.11
2019-01-16T00:42:10.952Z,990.11
2019-01-16T00:43:11.126Z,990.07
2019-01-16T00:44:11.300Z,990.08
2019-01-16T00:45:11.472Z,990.04
2019-01-16T00:46:11.649Z,990.09
2019-01-16T00:47:11.834Z,990.08
2019-01-16T00:48:11.984Z,990.05
2019-01-16T00:49:12.164Z,990.02
2019-01-16T00:50:12.326Z,989.96
2019-01-16T00:51:12.497Z,989.97
2019-01-16T00:52:12.677Z,990.01
2019-01-16T00:53:12.841Z,990.02
2019-01-16T00:54:13.013Z,990.00
2019-01-16T00:55:13.187Z,989.97
2019-01-16T00:56:13.361Z,989.95
2019-01-16T00:57:13.531Z,989.99
2019-01-16T00:58:13.702Z,990.01
2019-01-16T00:59:13.876Z,990.00
2019-01-16T01:00:14.048Z,990.01
2019-01-16T01:01:14.220Z,990.01
2019-01-16T01:02:14.389Z,990.03
2019-01-16T01:03:14.562Z,990.01
2019-01-16T01:04:14.739Z,990.01
2019-01-16T01:06:15.069Z,989.97
2019-01-16T01:08:15.408Z,989.98
2019-01-16T01:09:15.580Z,989.98
2019-01-16T01:10:15.751Z,989.94
2019-01-16T01:12:16.086Z,989.93
2019-01-16T01:13:16.259Z,989.97
2019-01-16T01:14:16.431Z,989.97
2019-01-16T01:15:16.603Z,989.96
2019-01-16T01:17:16.947Z,989.86
2019-01-16T01:18:17.113Z,989.89
2019-01-16T01:19:17.285Z,989.91
2019-01-16T01:20:17.459Z,989.86
2019-01-16T01:21:17.626Z,989.91
2019-01-16T01:22:17.796Z,989.93
2019-01-16T01:23:17.970Z,989.93
2019-01-16T01:24:18.139Z,989.92
2019-01-16T01:25:18.310Z,989.92
2019-01-16T01:26:18.478Z,989.93
2019-01-16T01:27:18.656Z,989.90
2019-01-16T01:28:18.829Z,989.87
2019-01-16T01:29:19.013Z,989.99
2019-01-16T01:30:19.170Z,989.95
2019-01-16T01:31:19.338Z,990.02
2019-01-16T01:32:19.521Z,989.83
2019-01-16T01:33:19.688Z,989.95
2019-01-16T01:34:21.491Z,989.98
2019-01-16T01:35:20.027Z,989.94
2019-01-16T01:36:20.196Z,989.97
2019-01-16T01:37:20.363Z,989.97
2019-01-16T01:38:20.534Z,989.99
2019-01-16T01:39:20.706Z,989.93
2019-01-16T01:40:20.876Z,989.92
2019-01-16T01:41:21.043Z,989.84
2019-01-16T01:42:21.221Z,989.83
2019-01-16T01:43:21.390Z,989.81
2019-01-16T01:44:21.579Z,989.82
2019-01-16T01:45:21.737Z,989.84
2019-01-16T01:46:21.912Z,989.77
2019-01-16T01:47:22.069Z,989.88
2019-01-16T01:48:22.240Z,989.93
2019-01-16T01:49:22.412Z,989.95
2019-01-16T01:50:22.583Z,989.91
2019-01-16T01:51:22.757Z,989.92
2019-01-16T01:52:22.928Z,989.96
2019-01-16T01:53:23.103Z,989.92
2019-01-16T01:54:23.274Z,989.95
2019-01-16T01:55:23.446Z,989.94
2019-01-16T01:56:23.619Z,989.96
2019-01-16T01:57:23.790Z,989.92
2019-01-16T01:58:23.962Z,989.83
2019-01-16T01:59:24.137Z,989.80
2019-01-16T02:00:24.300Z,989.82
2019-01-16T02:01:24.472Z,989.79
2019-01-16T02:02:24.644Z,989.73
2019-01-16T02:03:24.817Z,989.73
2019-01-16T02:04:25.000Z,989.76
2019-01-16T02:05:25.159Z,989.78
2019-01-16T02:06:25.339Z,989.81
2019-01-16T02:07:25.505Z,989.79
2019-01-16T02:08:25.674Z,989.73
2019-01-16T02:09:25.862Z,989.77
2019-01-16T02:10:26.018Z,989.75
2019-01-16T02:11:26.193Z,989.74
2019-01-16T02:12:26.364Z,989.83
2019-01-16T02:13:26.542Z,989.77
2019-01-16T02:14:26.710Z,989.74
2019-01-16T02:15:26.881Z,989.74
2019-01-16T02:16:27.053Z,989.77
2019-01-16T02:17:27.225Z,989.74
2019-01-16T02:18:27.399Z,989.78
2019-01-16T02:19:27.571Z,989.70
2019-01-16T02:20:27.741Z,989.70
2019-01-16T02:21:27.911Z,989.70
2019-01-16T02:22:28.082Z,989.71
2019-01-16T02:23:28.262Z,989.78
2019-01-16T02:24:28.432Z,989.75
2019-01-16T02:25:28.603Z,989.71
2019-01-16T02:26:28.777Z,989.70
2019-01-16T02:27:28.955Z,989.69
2019-01-16T02:28:29.118Z,989.64
2019-01-16T02:29:29.283Z,989.63
2019-01-16T02:30:29.455Z,989.65
2019-01-16T02:31:29.626Z,989.61
2019-01-16T02:32:29.800Z,989.60
2019-01-16T02:33:29.972Z,989.58
2019-01-16T02:34:30.144Z,989.61
2019-01-16T02:35:30.313Z,989.65
2019-01-16T02:36:30.485Z,989.62
2019-01-16T02:37:30.658Z,989.62
2019-01-16T02:38:30.830Z,989.60
2019-01-16T02:39:31.007Z,989.58
2019-01-16T02:40:31.184Z,989.59
2019-01-16T02:41:31.359Z,989.62
2019-01-16T02:42:31.530Z,989.56
2019-01-16T02:43:31.709Z,989.55
2019-01-16T02:44:31.877Z,989.57
2019-01-16T02:45:32.046Z,989.53
2019-01-16T02:46:32.221Z,989.56
2019-01-16T02:47:32.390Z,989.51
2019-01-16T02:48:32.567Z,989.50
2019-01-16T02:49:32.734Z,989.47
2019-01-16T02:50:32.906Z,989.45
2019-01-16T02:51:33.078Z,989.40
2019-01-16T02:52:33.252Z,989.42
2019-01-16T02:53:33.431Z,989.38
2019-01-16T02:54:33.601Z,989.37
2019-01-16T02:55:33.772Z,989.35
2019-01-16T02:56:33.948Z,989.35
2019-01-16T02:57:34.119Z,989.30
2019-01-16T02:58:34.288Z,989.36
2019-01-16T02:59:34.462Z,989.40
2019-01-16T03:00:34.632Z,989.37
2019-01-16T03:01:34.843Z,989.35
2019-01-16T03:02:34.978Z,989.38
2019-01-16T03:03:35.150Z,989.40
2019-01-16T03:04:35.321Z,989.41
2019-01-16T03:05:35.492Z,989.40
2019-01-16T03:06:35.662Z,989.35
2019-01-16T03:07:35.838Z,989.38
2019-01-16T03:08:36.002Z,989.36
2019-01-16T03:09:36.176Z,989.37
2019-01-16T03:10:36.346Z,989.38
2019-01-16T03:11:36.519Z,989.34
2019-01-16T03:12:36.687Z,989.39
2019-01-16T03:13:36.855Z,989.41
2019-01-16T03:14:37.045Z,989.38
2019-01-16T03:15:37.202Z,989.36
2019-01-16T03:16:37.371Z,989.37
2019-01-16T03:17:37.543Z,989.33
2019-01-16T03:18:37.718Z,989.34
2019-01-16T03:19:37.898Z,989.34
2019-01-16T03:20:38.061Z,989.29
2019-01-16T03:21:38.235Z,989.29
2019-01-16T03:22:38.412Z,989.28
2019-01-16T03:23:38.582Z,989.28
2019-01-16T03:24:38.773Z,989.31
2019-01-16T03:25:38.931Z,989.32
2019-01-16T03:26:39.101Z,989.32
2019-01-16T03:27:39.268Z,989.27
2019-01-16T03:28:39.438Z,989.27
2019-01-16T03:29:39.606Z,989.26
2019-01-16T03:30:39.779Z,989.23
2019-01-16T03:31:39.953Z,989.23
2019-01-16T03:32:40.129Z,989.25
2019-01-16T03:33:40.295Z,989.24
2019-01-16T03:34:40.469Z,989.24
2019-01-16T03:35:40.637Z,989.23
2019-01-16T03:36:40.805Z,989.21
2019-01-16T03:37:40.977Z,989.28
2019-01-16T03:38:41.150Z,989.24
2019-01-16T03:39:41.337Z,989.25
2019-01-16T03:40:41.489Z,989.28
2019-01-16T03:41:41.664Z,989.25
2019-01-16T03:42:41.836Z,989.28
2019-01-16T03:43:42.003Z,989.27
2019-01-16T03:44:42.182Z,989.26
2019-01-16T03:45:42.343Z,989.19
2019-01-16T03:46:42.528Z,989.16
2019-01-16T03:47:42.689Z,989.23
2019-01-16T03:48:42.865Z,989.18
2019-01-16T03:49:43.049Z,989.19
2019-01-16T03:50:43.213Z,989.21
2019-01-16T03:51:43.381Z,989.18
2019-01-16T03:52:43.553Z,989.21
2019-01-16T03:53:43.727Z,989.22
2019-01-16T03:54:43.899Z,989.18
2019-01-16T03:55:44.072Z,989.13
2019-01-16T03:56:44.242Z,989.16
2019-01-16T03:57:44.417Z,989.14
2019-01-16T03:58:44.584Z,989.14
2019-01-16T03:59:44.759Z,989.15
2019-01-16T04:00:44.932Z,989.10
2019-01-16T04:01:45.101Z,989.11
2019-01-16T04:02:45.278Z,989.12
2019-01-16T04:03:45.441Z,989.08
2019-01-16T04:04:45.614Z,989.08
2019-01-16T04:05:45.786Z,989.04
2019-01-16T04:06:46.038Z,989.08
2019-01-16T04:07:46.132Z,989.03
2019-01-16T04:08:46.305Z,988.98
2019-01-16T04:09:46.480Z,988.96
2019-01-16T04:10:46.650Z,988.94
2019-01-16T04:11:46.823Z,988.92
2019-01-16T04:12:46.996Z,988.94
2019-01-16T04:13:47.173Z,988.97
2019-01-16T04:14:47.337Z,988.98
2019-01-16T04:15:47.508Z,988.97
2019-01-16T04:16:47.677Z,988.95
2019-01-16T04:17:47.849Z,988.92
2019-01-16T04:18:48.021Z,988.93
2019-01-16T04:19:48.195Z,988.93
2019-01-16T04:20:48.366Z,988.89
2019-01-16T04:21:48.543Z,988.89
2019-01-16T04:22:48.711Z,988.85
2019-01-16T04:23:48.879Z,988.88
2019-01-16T04:24:49.050Z,988.89
2019-01-16T04:25:49.240Z,988.87
2019-01-16T04:26:49.392Z,988.85
2019-01-16T04:27:49.561Z,988.80
2019-01-16T04:28:49.734Z,988.79
2019-01-16T04:29:49.917Z,988.81
2019-01-16T04:30:50.061Z,988.75
2019-01-16T04:31:50.232Z,988.76
2019-01-16T04:32:50.411Z,988.77
2019-01-16T04:33:50.592Z,988.79
2019-01-16T04:34:50.753Z,988.77
2019-01-16T04:35:50.928Z,988.75
2019-01-16T04:36:51.102Z,988.75
2019-01-16T04:37:51.272Z,988.78
2019-01-16T04:38:51.444Z,988.75
2019-01-16T04:39:51.617Z,988.73
2019-01-16T04:40:51.792Z,988.67
2019-01-16T04:41:51.961Z,988.68
2019-01-16T04:42:52.136Z,988.65
2019-01-16T04:43:52.312Z,988.70
2019-01-16T04:44:52.482Z,988.66
2019-01-16T04:45:52.648Z,988.66
2019-01-16T04:46:52.825Z,988.67
2019-01-16T04:47:52.998Z,988.70
2019-01-16T04:48:53.171Z,988.63
2019-01-16T04:49:53.346Z,988.66
2019-01-16T04:50:53.519Z,988.61
2019-01-16T04:51:53.690Z,988.63
2019-01-16T04:52:53.861Z,988.63
2019-01-16T04:53:54.033Z,988.66
2019-01-16T04:54:54.225Z,988.64
2019-01-16T04:55:54.399Z,988.63
2019-01-16T04:56:54.555Z,988.60
2019-01-16T04:57:54.735Z,988.61
2019-01-16T04:58:54.902Z,988.63
2019-01-16T04:59:55.075Z,988.60
2019-01-16T05:00:55.258Z,988.56
2019-01-16T05:01:55.418Z,988.59
2019-01-16T05:02:55.590Z,988.59
2019-01-16T05:03:55.764Z,988.60
2019-01-16T05:04:55.934Z,988.57
2019-01-16T05:05:56.112Z,988.59
2019-01-16T05:06:56.290Z,988.55
2019-01-16T05:07:56.442Z,988.58
2019-01-16T05:08:56.616Z,988.54
2019-01-16T05:09:56.787Z,988.53
2019-01-16T05:10:56.956Z,988.52
2019-01-16T05:11:57.129Z,988.53
2019-01-16T05:12:57.301Z,988.51
2019-01-16T05:13:57.475Z,988.45
2019-01-16T05:14:57.646Z,988.51
2019-01-16T05:15:57.813Z,988.49
2019-01-16T05:16:57.987Z,988.49
2019-01-16T05:17:58.819Z,988.44
2019-01-16T05:18:58.375Z,988.45
2019-01-16T05:19:58.548Z,988.48
2019-01-16T05:20:58.718Z,988.43
2019-01-16T05:21:58.888Z,988.45
2019-01-16T05:22:59.074Z,988.42
2019-01-16T05:23:59.232Z,988.40
2019-01-16T05:24:59.394Z,988.38
2019-01-16T05:25:59.576Z,988.40
2019-01-16T05:26:59.744Z,988.41
2019-01-16T05:27:59.926Z,988.35
2019-01-16T05:29:00.089Z,988.35
2019-01-16T05:30:00.257Z,988.36
2019-01-16T05:31:00.450Z,988.38
2019-01-16T05:32:00.612Z,988.36
2019-01-16T05:33:00.773Z,988.36
2019-01-16T05:34:00.953Z,988.37
2019-01-16T05:35:01.108Z,988.33
2019-01-16T05:36:01.313Z,988.33
2019-01-16T05:37:01.475Z,988.33
2019-01-16T05:38:01.650Z,988.35
2019-01-16T05:39:01.836Z,988.37
2019-01-16T05:40:01.990Z,988.35
2019-01-16T05:41:02.436Z,988.35
2019-01-16T05:42:02.393Z,988.35
2019-01-16T05:43:02.554Z,988.34
2019-01-16T05:44:02.727Z,988.32
2019-01-16T05:45:02.905Z,988.27
2019-01-16T05:46:03.075Z,988.31
2019-01-16T05:47:03.248Z,988.28
2019-01-16T05:48:03.437Z,988.28
2019-01-16T05:49:03.590Z,988.25
2019-01-16T05:50:03.761Z,988.30
2019-01-16T05:51:03.934Z,988.31
2019-01-16T05:52:04.123Z,988.35
2019-01-16T05:53:04.292Z,988.35
2019-01-16T05:54:04.449Z,988.29
2019-01-16T05:55:04.620Z,988.30
2019-01-16T05:56:04.789Z,988.28
2019-01-16T05:57:04.962Z,988.31
2019-01-16T05:58:05.137Z,988.30
2019-01-16T05:59:05.308Z,988.25
2019-01-16T06:00:05.482Z,988.22
2019-01-16T06:01:05.653Z,988.21
2019-01-16T06:02:05.829Z,988.19
2019-01-16T06:03:06.000Z,988.21
2019-01-16T06:04:06.173Z,988.19
2019-01-16T06:05:06.349Z,988.17
2019-01-16T06:06:06.512Z,988.24
2019-01-16T06:07:06.759Z,988.23
2019-01-16T06:08:06.930Z,988.19
2019-01-16T06:09:07.053Z,988.22
2019-01-16T06:10:07.230Z,988.20
2019-01-16T06:11:07.401Z,988.25
2019-01-16T06:12:07.568Z,988.20
2019-01-16T06:13:07.740Z,988.20
2019-01-16T06:14:07.896Z,988.13
2019-01-16T06:15:08.068Z,988.17
2019-01-16T06:16:08.243Z,988.18
2019-01-16T06:17:08.405Z,988.17
2019-01-16T06:18:08.579Z,988.17
2019-01-16T06:19:08.749Z,988.19
2019-01-16T06:20:08.921Z,988.15
2019-01-16T06:21:09.097Z,988.20
2019-01-16T06:22:09.264Z,988.25
2019-01-16T06:23:09.435Z,988.20
2019-01-16T06:24:09.603Z,988.23
2019-01-16T06:25:09.780Z,988.22
2019-01-16T06:26:09.948Z,988.14
2019-01-16T06:27:10.123Z,988.19
2019-01-16T06:28:10.290Z,988.12
2019-01-16T06:29:10.464Z,988.13
2019-01-16T06:30:10.632Z,988.15
2019-01-16T06:31:10.811Z,988.09
2019-01-16T06:32:10.975Z,988.09
2019-01-16T06:33:11.148Z,988.09
2019-01-16T06:34:11.319Z,988.04
2019-01-16T06:35:11.518Z,988.02
2019-01-16T06:36:11.660Z,988.09
2019-01-16T06:37:11.828Z,988.04
2019-01-16T06:38:12.009Z,988.07
2019-01-16T06:39:12.177Z,988.05
2019-01-16T06:40:12.364Z,988.10
2019-01-16T06:41:12.534Z,988.08
2019-01-16T06:42:12.683Z,988.05
2019-01-16T06:43:12.855Z,988.07
2019-01-16T06:44:13.030Z,988.05
2019-01-16T06:45:13.221Z,988.04
2019-01-16T06:46:13.442Z,988.00
2019-01-16T06:47:13.543Z,988.01
2019-01-16T06:48:13.699Z,987.98
2019-01-16T06:49:13.871Z,987.99
2019-01-16T06:50:16.559Z,987.95
2019-01-16T06:51:14.213Z,987.96
2019-01-16T06:52:14.388Z,987.92
2019-01-16T06:53:14.556Z,987.95
2019-01-16T06:54:14.729Z,987.91
2019-01-16T06:55:14.900Z,987.93
2019-01-16T06:56:15.072Z,987.89
2019-01-16T06:57:15.246Z,987.89
2019-01-16T06:58:15.418Z,987.86
2019-01-16T06:59:15.598Z,987.83
2019-01-16T07:00:15.759Z,987.88
2019-01-16T07:01:15.928Z,987.82
2019-01-16T07:02:16.101Z,987.81
2019-01-16T07:03:16.273Z,987.84
2019-01-16T07:04:16.450Z,987.82
2019-01-16T07:05:16.616Z,987.84
2019-01-16T07:06:16.790Z,987.85
2019-01-16T07:07:16.968Z,987.80
2019-01-16T07:08:17.131Z,987.83
2019-01-16T07:09:17.306Z,987.88
2019-01-16T07:10:17.472Z,987.78
2019-01-16T07:11:17.640Z,987.83
2019-01-16T07:12:17.815Z,987.85
2019-01-16T07:13:17.986Z,987.84
2019-01-16T07:14:18.153Z,987.92
2019-01-16T07:15:18.368Z,987.87
2019-01-16T07:16:18.505Z,987.84
2019-01-16T07:17:18.677Z,987.83
2019-01-16T07:18:18.854Z,987.83
2019-01-16T07:19:19.026Z,987.86
2019-01-16T07:20:19.200Z,987.79
2019-01-16T07:21:19.378Z,987.77
2019-01-16T07:22:19.546Z,987.75
2019-01-16T07:23:19.712Z,987.83
2019-01-16T07:24:19.886Z,987.87
2019-01-16T07:25:20.060Z,987.86
2019-01-16T07:26:20.228Z,987.89
2019-01-16T07:27:20.398Z,987.85
2019-01-16T07:28:20.570Z,987.82
2019-01-16T07:29:20.741Z,987.80
2019-01-16T07:30:20.912Z,987.78
2019-01-16T07:31:21.083Z,987.84
2019-01-16T07:32:21.266Z,987.79
2019-01-16T07:33:21.424Z,987.83
2019-01-16T07:34:21.598Z,987.80
2019-01-16T07:35:21.764Z,987.86
2019-01-16T07:36:21.937Z,987.84
2019-01-16T07:37:22.112Z,987.90
2019-01-16T07:38:22.281Z,987.90
2019-01-16T07:39:22.454Z,987.90
2019-01-16T07:40:22.628Z,987.92
2019-01-16T07:41:22.799Z,987.95
2019-01-16T07:42:22.968Z,987.97
2019-01-16T07:43:23.147Z,987.98
2019-01-16T07:44:23.319Z,988.00
2019-01-16T07:45:23.494Z,988.03
2019-01-16T07:46:23.663Z,987.99
2019-01-16T07:47:23.840Z,988.04
2019-01-16T07:48:24.002Z,988.02
2019-01-16T07:49:24.185Z,988.04
2019-01-16T07:50:24.348Z,988.01
2019-01-16T07:51:24.518Z,988.02
2019-01-16T07:52:24.691Z,988.04
2019-01-16T07:53:24.882Z,988.04
2019-01-16T07:54:25.034Z,988.07
2019-01-16T07:55:25.205Z,988.06
2019-01-16T07:56:25.375Z,988.07
2019-01-16T07:57:25.548Z,988.07
2019-01-16T07:58:25.716Z,988.06
2019-01-16T07:59:25.889Z,988.04
2019-01-16T08:00:26.067Z,988.06
2019-01-16T08:01:26.236Z,988.02
2019-01-16T08:02:26.420Z,988.01
2019-01-16T08:03:26.579Z,988.07
2019-01-16T08:04:26.752Z,988.07
2019-01-16T08:05:26.921Z,988.05
2019-01-16T08:06:27.100Z,988.00
2019-01-16T08:07:27.273Z,988.03
2019-01-16T08:08:27.443Z,988.00
2019-01-16T08:09:27.615Z,987.99
2019-01-16T08:10:27.796Z,987.97
2019-01-16T08:11:27.952Z,987.96
2019-01-16T08:12:28.132Z,988.00
2019-01-16T08:13:28.294Z,988.00
2019-01-16T08:14:28.474Z,988.02
2019-01-16T08:15:28.645Z,988.02
2019-01-16T08:16:28.802Z,988.05
2019-01-16T08:17:28.976Z,988.06
2019-01-16T08:18:29.145Z,988.06
2019-01-16T08:19:29.316Z,988.13
2019-01-16T08:20:29.500Z,988.12
2019-01-16T08:21:29.654Z,988.13
2019-01-16T08:22:29.832Z,988.08
2019-01-16T08:23:29.996Z,988.11
2019-01-16T08:24:30.173Z,988.10
2019-01-16T08:25:30.341Z,988.09
2019-01-16T08:26:30.516Z,988.09
2019-01-16T08:27:30.703Z,988.09
2019-01-16T08:28:30.856Z,988.07
2019-01-16T08:29:31.023Z,988.07
2019-01-16T08:30:31.217Z,988.03
2019-01-16T08:31:31.380Z,988.05
2019-01-16T08:32:31.563Z,988.04
2019-01-16T08:33:31.722Z,988.08
2019-01-16T08:34:31.891Z,988.04
2019-01-16T08:35:32.062Z,988.09
2019-01-16T08:36:32.232Z,988.10
2019-01-16T08:37:32.579Z,988.12
2019-01-16T08:38:32.588Z,988.11
2019-01-16T08:39:32.753Z,988.17
2019-01-16T08:40:32.928Z,988.15
2019-01-16T08:41:33.092Z,988.20
2019-01-16T08:42:33.276Z,988.15
2019-01-16T08:43:33.441Z,988.11
2019-01-16T08:44:33.609Z,988.11
2019-01-16T08:45:33.784Z,988.06
2019-01-16T08:46:33.955Z,988.07
2019-01-16T08:47:34.129Z,988.04
2019-01-16T08:48:34.302Z,988.06
2019-01-16T08:49:34.469Z,988.05
2019-01-16T08:50:34.650Z,987.96
2019-01-16T08:51:34.812Z,987.95
2019-01-16T08:52:34.991Z,987.91
2019-01-16T08:53:35.404Z,987.90
2019-01-16T08:54:35.322Z,987.86
2019-01-16T08:55:35.485Z,987.90
2019-01-16T08:56:35.668Z,987.90
2019-01-16T08:57:35.846Z,987.90
2019-01-16T08:58:36.011Z,987.99
2019-01-16T08:59:36.181Z,987.90
2019-01-16T09:00:36.353Z,987.90
2019-01-16T09:01:36.524Z,987.90
2019-01-16T09:02:36.697Z,987.88
2019-01-16T09:03:36.880Z,987.85
2019-01-16T09:04:37.044Z,987.91
2019-01-16T09:05:37.223Z,987.93
2019-01-16T09:06:37.391Z,987.95
2019-01-16T09:07:37.555Z,987.86
2019-01-16T09:08:37.728Z,987.94
2019-01-16T09:09:37.908Z,987.91
2019-01-16T09:10:38.087Z,987.97
2019-01-16T09:11:38.246Z,987.94
2019-01-16T09:12:38.408Z,988.01
2019-01-16T09:13:38.591Z,987.92
2019-01-16T09:14:38.751Z,987.97
2019-01-16T09:15:38.927Z,987.93
2019-01-16T09:16:39.104Z,987.95
2019-01-16T09:17:39.273Z,987.98
2019-01-16T09:18:39.443Z,987.93
2019-01-16T09:19:39.617Z,987.95
2019-01-16T09:20:40.137Z,987.99
2019-01-16T09:21:39.961Z,987.95
2019-01-16T09:22:40.124Z,987.94
2019-01-16T09:23:40.296Z,987.97
2019-01-16T09:24:40.467Z,987.92
2019-01-16T09:25:40.637Z,987.92
2019-01-16T09:26:40.806Z,987.95
2019-01-16T09:27:40.988Z,987.98
2019-01-16T09:28:41.153Z,988.03
2019-01-16T09:29:41.326Z,987.98
2019-01-16T09:30:41.499Z,988.00
2019-01-16T09:31:41.674Z,988.01
2019-01-16T09:32:41.844Z,988.02
2019-01-16T09:33:42.028Z,987.94
2019-01-16T09:34:42.191Z,987.99
2019-01-16T09:35:42.351Z,987.88
2019-01-16T09:36:42.522Z,987.90
2019-01-16T09:37:42.694Z,987.85
2019-01-16T09:38:42.867Z,987.92
2019-01-16T09:39:43.039Z,987.83
2019-01-16T09:40:43.209Z,987.78
2019-01-16T09:41:43.382Z,987.74
2019-01-16T09:42:43.552Z,987.68
2019-01-16T09:43:43.731Z,987.66
2019-01-16T09:44:43.898Z,987.73
2019-01-16T09:45:44.067Z,987.67
2019-01-16T09:46:44.236Z,987.69
2019-01-16T09:47:44.424Z,987.65
2019-01-16T09:48:44.580Z,987.67
2019-01-16T09:49:44.754Z,987.67
2019-01-16T09:50:48.007Z,987.67
2019-01-16T09:51:45.105Z,987.62
2019-01-16T09:52:45.281Z,987.64
2019-01-16T09:53:45.448Z,987.60
2019-01-16T09:54:45.618Z,987.61
2019-01-16T09:55:45.788Z,987.59
2019-01-16T09:56:45.963Z,987.65
2019-01-16T09:57:46.136Z,987.62
2019-01-16T09:58:46.303Z,987.64
2019-01-16T09:59:46.527Z,987.63
2019-01-16T10:00:46.646Z,987.61
2019-01-16T10:01:46.825Z,987.54
2019-01-16T10:02:46.998Z,987.54
2019-01-16T10:03:47.163Z,987.45
2019-01-16T10:04:47.336Z,987.48
2019-01-16T10:05:47.510Z,987.43
2019-01-16T10:06:47.680Z,987.40
2019-01-16T10:07:47.852Z,987.45
2019-01-16T10:08:48.028Z,987.45
2019-01-16T10:09:48.200Z,987.45
2019-01-16T10:10:48.370Z,987.46
2019-01-16T10:11:48.545Z,987.51
2019-01-16T10:12:48.743Z,987.55
2019-01-16T10:13:48.879Z,987.51
2019-01-16T10:14:49.056Z,987.51
2019-01-16T10:15:49.226Z,987.51
2019-01-16T10:16:49.398Z,987.54
2019-01-16T10:17:49.569Z,987.42
2019-01-16T10:18:49.744Z,987.54
2019-01-16T10:19:49.912Z,987.56
2019-01-16T10:20:55.608Z,987.61
2019-01-16T10:21:50.265Z,987.59
2019-01-16T10:22:50.426Z,987.59
2019-01-16T10:23:50.596Z,987.50
2019-01-16T10:24:50.769Z,987.50
2019-01-16T10:25:50.942Z,987.50
2019-01-16T10:26:51.114Z,987.46
2019-01-16T10:27:51.281Z,987.38
2019-01-16T10:28:51.452Z,987.43
2019-01-16T10:29:51.626Z,987.36
2019-01-16T10:30:51.801Z,987.41
2019-01-16T10:31:51.981Z,987.40
2019-01-16T10:32:52.154Z,987.42
2019-01-16T10:33:52.327Z,987.41
2019-01-16T10:34:52.501Z,987.49
2019-01-16T10:35:52.669Z,987.45
2019-01-16T10:36:52.838Z,987.42
2019-01-16T10:37:53.010Z,987.41
2019-01-16T10:38:53.175Z,987.41
2019-01-16T10:39:53.344Z,987.43
2019-01-16T10:40:53.517Z,987.41
2019-01-16T10:41:53.691Z,987.30
2019-01-16T10:42:53.862Z,987.27
2019-01-16T10:43:54.038Z,987.26
2019-01-16T10:44:54.211Z,987.23
2019-01-16T10:45:54.379Z,987.22
2019-01-16T10:46:54.581Z,987.17
2019-01-16T10:47:54.742Z,987.15
2019-01-16T10:48:54.946Z,987.09
2019-01-16T10:49:55.076Z,987.10
2019-01-16T10:50:55.246Z,987.11
2019-01-16T10:51:55.421Z,987.15
2019-01-16T10:52:55.594Z,987.18
2019-01-16T10:53:55.758Z,987.09
2019-01-16T10:54:55.931Z,987.12
2019-01-16T10:55:56.114Z,987.09
2019-01-16T10:56:56.274Z,987.07
2019-01-16T10:57:56.446Z,987.09
2019-01-16T10:58:56.619Z,987.20
2019-01-16T10:59:56.791Z,987.07
2019-01-16T11:00:56.970Z,987.18
2019-01-16T11:01:57.152Z,987.11
2019-01-16T11:02:57.305Z,987.09
2019-01-16T11:03:57.487Z,987.13
2019-01-16T11:04:57.688Z,987.07
2019-01-16T11:05:57.857Z,987.05
2019-01-16T11:06:58.032Z,987.00
2019-01-16T11:07:58.200Z,987.05
2019-01-16T11:08:58.371Z,987.06
2019-01-16T11:09:58.554Z,987.01
2019-01-16T11:10:58.714Z,986.98
2019-01-16T11:11:58.882Z,986.84
2019-01-16T11:12:59.063Z,986.85
2019-01-16T11:13:59.243Z,986.84
2019-01-16T11:14:59.416Z,986.79
2019-01-16T11:15:59.583Z,986.74
2019-01-16T11:16:59.749Z,986.75
2019-01-16T11:17:59.920Z,986.66
2019-01-16T11:19:00.100Z,986.74
2019-01-16T11:20:00.278Z,986.69
2019-01-16T11:21:00.447Z,986.69
2019-01-16T11:22:00.606Z,986.69
2019-01-16T11:23:00.771Z,986.61
2019-01-16T11:24:00.954Z,986.61
2019-01-16T11:25:01.117Z,986.61
2019-01-16T11:26:01.303Z,986.62
2019-01-16T11:27:01.458Z,986.59
2019-01-16T11:28:01.636Z,986.57
2019-01-16T11:29:01.813Z,986.54
2019-01-16T11:30:01.972Z,986.56
2019-01-16T11:31:02.158Z,986.55
2019-01-16T11:32:02.304Z,986.49
2019-01-16T11:33:02.474Z,986.46
2019-01-16T11:34:02.666Z,986.51
2019-01-16T11:35:02.814Z,986.51
2019-01-16T11:36:02.982Z,986.47
2019-01-16T11:37:03.165Z,986.45
2019-01-16T11:38:03.326Z,986.43
2019-01-16T11:39:03.498Z,986.38
2019-01-16T11:40:04.882Z,986.39
2019-01-16T11:41:03.844Z,986.42
2019-01-16T11:42:04.018Z,986.40
2019-01-16T11:43:04.198Z,986.39
2019-01-16T11:44:04.366Z,986.42
2019-01-16T11:45:04.542Z,986.40
2019-01-16T11:46:04.713Z,986.41
2019-01-16T11:47:04.878Z,986.41
2019-01-16T11:48:05.056Z,986.36
2019-01-16T11:49:05.221Z,986.34
2019-01-16T11:50:05.391Z,986.30
2019-01-16T11:51:05.563Z,986.27
2019-01-16T11:52:05.735Z,986.30
2019-01-16T11:53:05.918Z,986.29
2019-01-16T11:54:06.082Z,986.29
2019-01-16T11:55:06.258Z,986.31
2019-01-16T11:56:06.430Z,986.24
2019-01-16T11:57:06.603Z,986.19
2019-01-16T11:58:06.774Z,986.21
2019-01-16T11:59:06.952Z,986.21
2019-01-16T12:00:07.126Z,986.14
2019-01-16T12:01:07.292Z,986.17
2019-01-16T12:02:07.459Z,986.09
2019-01-16T12:03:07.627Z,986.03
2019-01-16T12:04:07.805Z,986.04
2019-01-16T12:05:07.971Z,985.97
2019-01-16T12:06:08.168Z,985.97
2019-01-16T12:07:08.319Z,985.92
2019-01-16T12:08:08.494Z,985.93
2019-01-16T12:09:08.667Z,985.91
2019-01-16T12:10:08.840Z,985.91
2019-01-16T12:11:09.008Z,985.96
2019-01-16T12:12:09.179Z,985.85
2019-01-16T12:13:09.359Z,985.90
2019-01-16T12:14:09.526Z,985.86
2019-01-16T12:15:09.693Z,985.88
2019-01-16T12:16:09.864Z,985.81
2019-01-16T12:17:10.037Z,985.76
2019-01-16T12:18:10.210Z,985.78
2019-01-16T12:19:10.376Z,985.75
2019-01-16T12:20:10.547Z,985.79
2019-01-16T12:21:10.715Z,985.75
2019-01-16T12:22:10.889Z,985.76
2019-01-16T12:23:11.056Z,985.72
2019-01-16T12:24:11.229Z,985.63
2019-01-16T12:25:11.402Z,985.63
2019-01-16T12:26:11.563Z,985.64
2019-01-16T12:27:11.756Z,985.63
2019-01-16T12:28:11.913Z,985.62
2019-01-16T12:29:12.084Z,985.58
2019-01-16T12:30:12.266Z,985.59
2019-01-16T12:31:12.438Z,985.56
2019-01-16T12:32:12.606Z,985.56
2019-01-16T12:33:12.773Z,985.56
2019-01-16T12:34:12.953Z,985.45